Аэропорт: Рощино. Тюмень

ICAO: USTR

METAR:
2021-07-28 15:00:00
USTR 281500Z 29001MPS 9999 FEW049 14/10 Q1008 R30/CLRD65 R21/CLRD65 NOSIG
METAR:
2021-07-28 13:35:00
TAF USTR 281335Z 2815/2915 30003MPS 9999 SCT016 FM282000 28003MPS 4000 BR SCT010 TEMPO 2820/2902 0300 FG VV002 BECMG 2902/2904 28006G12MPS